sensor_id;sensor_type;location;lat;lon;timestamp;temperature;humidity
24638;DHT22;12773;50.162;8.548;2023-11-21T00:00:44;11.70;99.90
24638;DHT22;12773;50.162;8.548;2023-11-21T00:03:32;11.70;99.90
24638;DHT22;12773;50.162;8.548;2023-11-21T00:06:19;11.60;99.90
24638;DHT22;12773;50.162;8.548;2023-11-21T00:09:07;11.60;99.90
24638;DHT22;12773;50.162;8.548;2023-11-21T00:11:55;11.50;99.90
24638;DHT22;12773;50.162;8.548;2023-11-21T00:14:43;11.60;99.90
24638;DHT22;12773;50.162;8.548;2023-11-21T00:17:30;11.60;99.90
24638;DHT22;12773;50.162;8.548;2023-11-21T00:20:18;11.70;99.90
24638;DHT22;12773;50.162;8.548;2023-11-21T00:23:06;11.80;99.90
24638;DHT22;12773;50.162;8.548;2023-11-21T00:25:53;11.70;99.90
24638;DHT22;12773;50.162;8.548;2023-11-21T00:28:41;11.80;99.90
24638;DHT22;12773;50.162;8.548;2023-11-21T00:31:28;11.80;99.90
24638;DHT22;12773;50.162;8.548;2023-11-21T00:34:17;11.90;99.90
24638;DHT22;12773;50.162;8.548;2023-11-21T00:37:04;11.90;99.90
24638;DHT22;12773;50.162;8.548;2023-11-21T00:39:52;12.00;99.90
24638;DHT22;12773;50.162;8.548;2023-11-21T00:42:39;12.00;99.90
24638;DHT22;12773;50.162;8.548;2023-11-21T00:45:27;12.00;99.90
24638;DHT22;12773;50.162;8.548;2023-11-21T00:48:14;12.00;99.90
24638;DHT22;12773;50.162;8.548;2023-11-21T00:51:02;12.00;99.90
24638;DHT22;12773;50.162;8.548;2023-11-21T00:53:50;11.90;99.90
24638;DHT22;12773;50.162;8.548;2023-11-21T00:56:38;11.90;99.90
24638;DHT22;12773;50.162;8.548;2023-11-21T00:59:26;12.00;99.90
24638;DHT22;12773;50.162;8.548;2023-11-21T01:02:14;12.00;99.90
24638;DHT22;12773;50.162;8.548;2023-11-21T01:05:01;12.00;99.90
24638;DHT22;12773;50.162;8.548;2023-11-21T01:07:50;12.00;99.90
24638;DHT22;12773;50.162;8.548;2023-11-21T01:10:38;12.00;99.90
24638;DHT22;12773;50.162;8.548;2023-11-21T01:13:25;12.00;99.90
24638;DHT22;12773;50.162;8.548;2023-11-21T01:16:14;12.00;99.90
24638;DHT22;12773;50.162;8.548;2023-11-21T01:19:01;12.00;99.90
24638;DHT22;12773;50.162;8.548;2023-11-21T01:21:49;12.00;99.90
24638;DHT22;12773;50.162;8.548;2023-11-21T01:24:36;12.10;99.90
24638;DHT22;12773;50.162;8.548;2023-11-21T01:27:23;12.10;99.90
24638;DHT22;12773;50.162;8.548;2023-11-21T01:30:11;12.10;99.90
24638;DHT22;12773;50.162;8.548;2023-11-21T01:32:59;11.90;99.90
24638;DHT22;12773;50.162;8.548;2023-11-21T01:35:46;12.00;99.90
24638;DHT22;12773;50.162;8.548;2023-11-21T01:38:34;12.00;99.90
24638;DHT22;12773;50.162;8.548;2023-11-21T01:41:21;12.00;99.90
24638;DHT22;12773;50.162;8.548;2023-11-21T01:44:09;12.00;99.90
24638;DHT22;12773;50.162;8.548;2023-11-21T01:46:57;12.00;99.90
24638;DHT22;12773;50.162;8.548;2023-11-21T01:49:45;12.10;99.90
24638;DHT22;12773;50.162;8.548;2023-11-21T01:52:35;12.10;99.90
24638;DHT22;12773;50.162;8.548;2023-11-21T01:55:23;12.10;99.90
24638;DHT22;12773;50.162;8.548;2023-11-21T01:58:12;12.10;99.90
24638;DHT22;12773;50.162;8.548;2023-11-21T02:01:00;12.10;99.90
24638;DHT22;12773;50.162;8.548;2023-11-21T02:03:48;12.10;99.90
24638;DHT22;12773;50.162;8.548;2023-11-21T02:06:35;12.10;99.90
24638;DHT22;12773;50.162;8.548;2023-11-21T02:09:27;12.10;99.90
24638;DHT22;12773;50.162;8.548;2023-11-21T02:12:16;12.00;99.90
24638;DHT22;12773;50.162;8.548;2023-11-21T02:15:04;12.00;99.90
24638;DHT22;12773;50.162;8.548;2023-11-21T02:17:53;11.90;99.90
24638;DHT22;12773;50.162;8.548;2023-11-21T02:20:41;11.80;99.90
24638;DHT22;12773;50.162;8.548;2023-11-21T02:23:29;11.70;99.90
24638;DHT22;12773;50.162;8.548;2023-11-21T02:26:16;11.70;99.90
24638;DHT22;12773;50.162;8.548;2023-11-21T02:29:04;11.70;99.90
24638;DHT22;12773;50.162;8.548;2023-11-21T02:31:52;11.80;99.90
24638;DHT22;12773;50.162;8.548;2023-11-21T02:34:41;11.90;99.90
24638;DHT22;12773;50.162;8.548;2023-11-21T02:37:29;11.90;99.90
24638;DHT22;12773;50.162;8.548;2023-11-21T02:40:17;11.90;99.90
24638;DHT22;12773;50.162;8.548;2023-11-21T02:43:07;11.90;99.90
24638;DHT22;12773;50.162;8.548;2023-11-21T02:45:54;11.80;99.90
24638;DHT22;12773;50.162;8.548;2023-11-21T02:48:41;11.80;99.90
24638;DHT22;12773;50.162;8.548;2023-11-21T02:51:30;11.80;99.90
24638;DHT22;12773;50.162;8.548;2023-11-21T02:54:18;11.70;99.90
24638;DHT22;12773;50.162;8.548;2023-11-21T02:57:07;11.70;99.90
24638;DHT22;12773;50.162;8.548;2023-11-21T02:59:55;11.70;99.90
24638;DHT22;12773;50.162;8.548;2023-11-21T03:02:43;11.80;99.90
24638;DHT22;12773;50.162;8.548;2023-11-21T03:05:30;11.80;99.90
24638;DHT22;12773;50.162;8.548;2023-11-21T03:08:18;11.70;99.90
24638;DHT22;12773;50.162;8.548;2023-11-21T03:11:05;11.60;99.90
24638;DHT22;12773;50.162;8.548;2023-11-21T03:13:53;11.60;99.90
24638;DHT22;12773;50.162;8.548;2023-11-21T03:16:40;11.40;99.90
24638;DHT22;12773;50.162;8.548;2023-11-21T03:19:28;11.40;99.90
24638;DHT22;12773;50.162;8.548;2023-11-21T03:22:16;11.40;99.90
24638;DHT22;12773;50.162;8.548;2023-11-21T03:25:04;11.40;99.90
24638;DHT22;12773;50.162;8.548;2023-11-21T03:27:52;11.50;99.90
24638;DHT22;12773;50.162;8.548;2023-11-21T03:30:40;11.50;99.90
24638;DHT22;12773;50.162;8.548;2023-11-21T03:33:28;11.50;99.90
24638;DHT22;12773;50.162;8.548;2023-11-21T03:36:15;11.40;99.90
24638;DHT22;12773;50.162;8.548;2023-11-21T03:39:04;11.40;99.90
24638;DHT22;12773;50.162;8.548;2023-11-21T03:41:52;11.40;99.90
24638;DHT22;12773;50.162;8.548;2023-11-21T03:44:39;11.30;99.90
24638;DHT22;12773;50.162;8.548;2023-11-21T03:47:28;11.20;99.90
24638;DHT22;12773;50.162;8.548;2023-11-21T03:50:16;11.30;99.90
24638;DHT22;12773;50.162;8.548;2023-11-21T03:53:03;11.30;99.90
24638;DHT22;12773;50.162;8.548;2023-11-21T03:55:51;11.40;99.90
24638;DHT22;12773;50.162;8.548;2023-11-21T03:58:38;11.40;99.90
24638;DHT22;12773;50.162;8.548;2023-11-21T04:01:26;11.40;99.90
24638;DHT22;12773;50.162;8.548;2023-11-21T04:04:14;11.40;99.90
24638;DHT22;12773;50.162;8.548;2023-11-21T04:07:02;11.40;99.90
24638;DHT22;12773;50.162;8.548;2023-11-21T04:09:50;11.50;99.90
24638;DHT22;12773;50.162;8.548;2023-11-21T04:12:37;11.50;99.90
24638;DHT22;12773;50.162;8.548;2023-11-21T04:15:24;11.50;99.90
24638;DHT22;12773;50.162;8.548;2023-11-21T04:18:12;11.40;99.90
24638;DHT22;12773;50.162;8.548;2023-11-21T04:20:59;11.30;99.90
24638;DHT22;12773;50.162;8.548;2023-11-21T04:23:47;11.30;99.90
24638;DHT22;12773;50.162;8.548;2023-11-21T04:26:35;11.30;99.90
24638;DHT22;12773;50.162;8.548;2023-11-21T04:29:23;11.30;99.90
24638;DHT22;12773;50.162;8.548;2023-11-21T04:32:10;11.20;99.90
24638;DHT22;12773;50.162;8.548;2023-11-21T04:34:59;11.20;99.90
24638;DHT22;12773;50.162;8.548;2023-11-21T04:37:46;11.20;99.90
24638;DHT22;12773;50.162;8.548;2023-11-21T04:40:34;11.20;99.90
24638;DHT22;12773;50.162;8.548;2023-11-21T04:43:21;11.20;99.90
24638;DHT22;12773;50.162;8.548;2023-11-21T04:46:09;11.20;99.90
24638;DHT22;12773;50.162;8.548;2023-11-21T04:48:57;11.30;99.90
24638;DHT22;12773;50.162;8.548;2023-11-21T04:51:44;11.20;99.90
24638;DHT22;12773;50.162;8.548;2023-11-21T04:54:32;11.30;99.90
24638;DHT22;12773;50.162;8.548;2023-11-21T04:57:20;11.20;99.90
24638;DHT22;12773;50.162;8.548;2023-11-21T05:00:09;11.20;99.90
24638;DHT22;12773;50.162;8.548;2023-11-21T05:02:57;11.20;99.90
24638;DHT22;12773;50.162;8.548;2023-11-21T05:05:45;11.10;99.90
24638;DHT22;12773;50.162;8.548;2023-11-21T05:08:32;11.10;99.90
24638;DHT22;12773;50.162;8.548;2023-11-21T05:11:29;10.90;99.90
24638;DHT22;12773;50.162;8.548;2023-11-21T05:14:12;11.00;99.90
24638;DHT22;12773;50.162;8.548;2023-11-21T05:17:00;11.00;99.90
24638;DHT22;12773;50.162;8.548;2023-11-21T05:19:48;11.00;99.90
24638;DHT22;12773;50.162;8.548;2023-11-21T05:22:36;11.00;99.90
24638;DHT22;12773;50.162;8.548;2023-11-21T05:25:23;11.20;99.90
24638;DHT22;12773;50.162;8.548;2023-11-21T05:28:11;11.30;99.90
24638;DHT22;12773;50.162;8.548;2023-11-21T05:30:58;11.30;99.90
24638;DHT22;12773;50.162;8.548;2023-11-21T05:33:48;11.30;99.90
24638;DHT22;12773;50.162;8.548;2023-11-21T05:36:35;11.40;99.90
24638;DHT22;12773;50.162;8.548;2023-11-21T05:39:23;11.50;99.90
24638;DHT22;12773;50.162;8.548;2023-11-21T05:42:10;11.50;99.90
24638;DHT22;12773;50.162;8.548;2023-11-21T05:44:58;11.40;99.90
24638;DHT22;12773;50.162;8.548;2023-11-21T05:47:59;11.40;99.90
24638;DHT22;12773;50.162;8.548;2023-11-21T05:50:46;11.30;99.90
24638;DHT22;12773;50.162;8.548;2023-11-21T05:53:35;11.30;99.90
24638;DHT22;12773;50.162;8.548;2023-11-21T05:56:23;11.30;99.90
24638;DHT22;12773;50.162;8.548;2023-11-21T05:59:10;11.30;99.90
24638;DHT22;12773;50.162;8.548;2023-11-21T06:01:58;11.30;99.90
24638;DHT22;12773;50.162;8.548;2023-11-21T06:04:46;11.40;99.90
24638;DHT22;12773;50.162;8.548;2023-11-21T06:07:34;11.30;99.90
24638;DHT22;12773;50.162;8.548;2023-11-21T06:10:22;11.20;99.90
24638;DHT22;12773;50.162;8.548;2023-11-21T06:13:11;11.00;99.90
24638;DHT22;12773;50.162;8.548;2023-11-21T06:15:58;11.00;99.90
24638;DHT22;12773;50.162;8.548;2023-11-21T06:18:47;11.00;99.90
24638;DHT22;12773;50.162;8.548;2023-11-21T06:21:34;10.90;99.90
24638;DHT22;12773;50.162;8.548;2023-11-21T06:24:22;10.90;99.90
24638;DHT22;12773;50.162;8.548;2023-11-21T06:27:09;10.90;99.90
24638;DHT22;12773;50.162;8.548;2023-11-21T06:29:57;10.90;99.90
24638;DHT22;12773;50.162;8.548;2023-11-21T06:32:45;10.90;99.90
24638;DHT22;12773;50.162;8.548;2023-11-21T06:35:34;10.90;99.90
24638;DHT22;12773;50.162;8.548;2023-11-21T06:38:21;10.90;99.90
24638;DHT22;12773;50.162;8.548;2023-11-21T06:41:09;10.90;99.90
24638;DHT22;12773;50.162;8.548;2023-11-21T06:43:56;10.90;99.90
24638;DHT22;12773;50.162;8.548;2023-11-21T06:46:44;10.80;99.90
24638;DHT22;12773;50.162;8.548;2023-11-21T06:49:32;10.90;99.90
24638;DHT22;12773;50.162;8.548;2023-11-21T06:52:20;10.90;99.90
24638;DHT22;12773;50.162;8.548;2023-11-21T06:55:09;10.90;99.90
24638;DHT22;12773;50.162;8.548;2023-11-21T06:57:57;10.90;99.90
24638;DHT22;12773;50.162;8.548;2023-11-21T07:00:46;10.90;99.90
24638;DHT22;12773;50.162;8.548;2023-11-21T07:03:35;10.90;99.90
24638;DHT22;12773;50.162;8.548;2023-11-21T07:06:23;10.90;99.90
24638;DHT22;12773;50.162;8.548;2023-11-21T07:09:11;10.90;99.90
24638;DHT22;12773;50.162;8.548;2023-11-21T07:11:58;10.90;99.90
24638;DHT22;12773;50.162;8.548;2023-11-21T07:14:46;10.90;99.90
24638;DHT22;12773;50.162;8.548;2023-11-21T07:17:34;10.90;99.90
24638;DHT22;12773;50.162;8.548;2023-11-21T07:20:24;10.90;99.90
24638;DHT22;12773;50.162;8.548;2023-11-21T07:23:11;10.90;99.90
24638;DHT22;12773;50.162;8.548;2023-11-21T07:25:58;11.00;99.90
24638;DHT22;12773;50.162;8.548;2023-11-21T07:28:46;11.10;99.90
24638;DHT22;12773;50.162;8.548;2023-11-21T07:31:33;11.00;99.90
24638;DHT22;12773;50.162;8.548;2023-11-21T07:34:21;11.00;99.90
24638;DHT22;12773;50.162;8.548;2023-11-21T07:37:09;11.00;99.90
24638;DHT22;12773;50.162;8.548;2023-11-21T07:39:56;11.00;99.90
24638;DHT22;12773;50.162;8.548;2023-11-21T07:42:44;11.00;99.90
24638;DHT22;12773;50.162;8.548;2023-11-21T07:45:31;11.10;99.90
24638;DHT22;12773;50.162;8.548;2023-11-21T07:48:19;11.20;99.90
24638;DHT22;12773;50.162;8.548;2023-11-21T07:51:06;11.10;99.90
24638;DHT22;12773;50.162;8.548;2023-11-21T07:53:54;11.10;99.90
24638;DHT22;12773;50.162;8.548;2023-11-21T07:56:42;11.20;99.90
24638;DHT22;12773;50.162;8.548;2023-11-21T07:59:30;11.20;99.90
24638;DHT22;12773;50.162;8.548;2023-11-21T08:02:17;11.30;99.90
24638;DHT22;12773;50.162;8.548;2023-11-21T08:05:05;11.40;99.90
24638;DHT22;12773;50.162;8.548;2023-11-21T08:07:54;11.40;99.90
24638;DHT22;12773;50.162;8.548;2023-11-21T08:10:42;11.50;99.90
24638;DHT22;12773;50.162;8.548;2023-11-21T08:13:31;11.50;99.90
24638;DHT22;12773;50.162;8.548;2023-11-21T08:16:22;11.60;99.90
24638;DHT22;12773;50.162;8.548;2023-11-21T08:19:11;11.70;99.90
24638;DHT22;12773;50.162;8.548;2023-11-21T08:21:58;11.80;99.90
24638;DHT22;12773;50.162;8.548;2023-11-21T08:24:46;11.80;99.90
24638;DHT22;12773;50.162;8.548;2023-11-21T08:27:34;11.70;99.90
24638;DHT22;12773;50.162;8.548;2023-11-21T08:30:26;11.70;99.90
24638;DHT22;12773;50.162;8.548;2023-11-21T08:33:16;11.80;99.90
24638;DHT22;12773;50.162;8.548;2023-11-21T08:36:08;11.70;99.90
24638;DHT22;12773;50.162;8.548;2023-11-21T08:38:57;11.80;99.90
24638;DHT22;12773;50.162;8.548;2023-11-21T08:41:45;11.80;99.90
24638;DHT22;12773;50.162;8.548;2023-11-21T08:44:32;11.70;99.90
24638;DHT22;12773;50.162;8.548;2023-11-21T08:47:20;11.60;99.90
24638;DHT22;12773;50.162;8.548;2023-11-21T08:50:13;11.70;99.90
24638;DHT22;12773;50.162;8.548;2023-11-21T08:53:01;11.80;99.90
24638;DHT22;12773;50.162;8.548;2023-11-21T08:55:51;11.60;99.90
24638;DHT22;12773;50.162;8.548;2023-11-21T08:58:40;11.70;99.90
24638;DHT22;12773;50.162;8.548;2023-11-21T09:01:31;11.50;99.90
24638;DHT22;12773;50.162;8.548;2023-11-21T09:04:19;11.50;99.90
24638;DHT22;12773;50.162;8.548;2023-11-21T09:07:07;11.50;99.90
24638;DHT22;12773;50.162;8.548;2023-11-21T09:09:54;11.50;99.90
24638;DHT22;12773;50.162;8.548;2023-11-21T09:12:42;11.40;99.90
24638;DHT22;12773;50.162;8.548;2023-11-21T09:15:29;11.50;99.90
24638;DHT22;12773;50.162;8.548;2023-11-21T09:18:16;11.40;99.90
24638;DHT22;12773;50.162;8.548;2023-11-21T09:21:04;11.40;99.90
24638;DHT22;12773;50.162;8.548;2023-11-21T09:23:52;11.40;99.90
24638;DHT22;12773;50.162;8.548;2023-11-21T09:26:40;11.30;99.90
24638;DHT22;12773;50.162;8.548;2023-11-21T09:29:27;11.40;99.90
24638;DHT22;12773;50.162;8.548;2023-11-21T09:32:15;11.50;99.90
24638;DHT22;12773;50.162;8.548;2023-11-21T09:35:05;11.60;99.90
24638;DHT22;12773;50.162;8.548;2023-11-21T09:37:55;11.70;99.90
24638;DHT22;12773;50.162;8.548;2023-11-21T09:40:42;11.60;99.90
24638;DHT22;12773;50.162;8.548;2023-11-21T09:43:30;11.80;99.90
24638;DHT22;12773;50.162;8.548;2023-11-21T09:46:19;11.80;99.90
24638;DHT22;12773;50.162;8.548;2023-11-21T09:49:10;12.10;99.90
24638;DHT22;12773;50.162;8.548;2023-11-21T09:52:01;12.40;99.90
24638;DHT22;12773;50.162;8.548;2023-11-21T09:54:53;12.60;99.90
24638;DHT22;12773;50.162;8.548;2023-11-21T09:57:41;12.80;99.90
24638;DHT22;12773;50.162;8.548;2023-11-21T10:00:29;13.00;99.90
24638;DHT22;12773;50.162;8.548;2023-11-21T10:03:19;13.20;99.90
24638;DHT22;12773;50.162;8.548;2023-11-21T10:06:07;13.10;99.90
24638;DHT22;12773;50.162;8.548;2023-11-21T10:08:56;13.00;99.90
24638;DHT22;12773;50.162;8.548;2023-11-21T10:11:43;13.00;99.90
24638;DHT22;12773;50.162;8.548;2023-11-21T10:14:32;13.20;99.90
24638;DHT22;12773;50.162;8.548;2023-11-21T10:17:21;13.40;99.90
24638;DHT22;12773;50.162;8.548;2023-11-21T10:20:12;13.30;99.90
24638;DHT22;12773;50.162;8.548;2023-11-21T10:23:00;13.40;99.90
24638;DHT22;12773;50.162;8.548;2023-11-21T10:25:50;13.40;99.90
24638;DHT22;12773;50.162;8.548;2023-11-21T10:28:38;13.40;99.90
24638;DHT22;12773;50.162;8.548;2023-11-21T10:31:27;13.20;99.90
24638;DHT22;12773;50.162;8.548;2023-11-21T10:34:16;13.20;99.90
24638;DHT22;12773;50.162;8.548;2023-11-21T10:37:14;13.10;99.90
24638;DHT22;12773;50.162;8.548;2023-11-21T10:40:04;13.10;99.90
24638;DHT22;12773;50.162;8.548;2023-11-21T10:42:51;13.20;99.90
24638;DHT22;12773;50.162;8.548;2023-11-21T10:45:40;13.10;99.90
24638;DHT22;12773;50.162;8.548;2023-11-21T10:48:28;13.10;99.90
24638;DHT22;12773;50.162;8.548;2023-11-21T10:51:16;13.10;99.90
24638;DHT22;12773;50.162;8.548;2023-11-21T10:54:06;13.20;99.90
24638;DHT22;12773;50.162;8.548;2023-11-21T10:57:00;13.40;99.90
24638;DHT22;12773;50.162;8.548;2023-11-21T10:59:48;13.40;99.90
24638;DHT22;12773;50.162;8.548;2023-11-21T11:02:36;13.50;99.90
24638;DHT22;12773;50.162;8.548;2023-11-21T11:05:25;13.70;99.90
24638;DHT22;12773;50.162;8.548;2023-11-21T11:08:14;13.80;99.90
24638;DHT22;12773;50.162;8.548;2023-11-21T11:11:05;14.10;99.90
24638;DHT22;12773;50.162;8.548;2023-11-21T11:13:53;14.40;99.90
24638;DHT22;12773;50.162;8.548;2023-11-21T11:16:41;14.60;99.90
24638;DHT22;12773;50.162;8.548;2023-11-21T11:19:29;14.50;99.90
24638;DHT22;12773;50.162;8.548;2023-11-21T11:28:47;14.60;99.90
24638;DHT22;12773;50.162;8.548;2023-11-21T11:31:54;14.70;99.90
24638;DHT22;12773;50.162;8.548;2023-11-21T11:37:48;14.60;99.90
24638;DHT22;12773;50.162;8.548;2023-11-21T11:40:40;14.40;99.90
24638;DHT22;12773;50.162;8.548;2023-11-21T11:43:28;14.10;99.90
24638;DHT22;12773;50.162;8.548;2023-11-21T11:46:16;14.20;99.90
24638;DHT22;12773;50.162;8.548;2023-11-21T11:49:04;14.30;99.90
24638;DHT22;12773;50.162;8.548;2023-11-21T11:52:33;14.30;99.90
24638;DHT22;12773;50.162;8.548;2023-11-21T11:55:00;14.30;99.90
24638;DHT22;12773;50.162;8.548;2023-11-21T11:57:53;14.10;99.90
24638;DHT22;12773;50.162;8.548;2023-11-21T12:00:36;14.10;99.90
24638;DHT22;12773;50.162;8.548;2023-11-21T12:03:26;14.20;99.90
24638;DHT22;12773;50.162;8.548;2023-11-21T12:06:14;14.30;99.90
24638;DHT22;12773;50.162;8.548;2023-11-21T12:09:04;14.30;99.90
24638;DHT22;12773;50.162;8.548;2023-11-21T12:11:51;14.40;99.90
24638;DHT22;12773;50.162;8.548;2023-11-21T12:14:39;14.30;99.90
24638;DHT22;12773;50.162;8.548;2023-11-21T12:17:26;14.40;99.90
24638;DHT22;12773;50.162;8.548;2023-11-21T12:20:15;14.40;99.90
24638;DHT22;12773;50.162;8.548;2023-11-21T12:23:05;14.20;99.90
24638;DHT22;12773;50.162;8.548;2023-11-21T12:25:53;14.10;99.90
24638;DHT22;12773;50.162;8.548;2023-11-21T12:28:40;14.00;99.90
24638;DHT22;12773;50.162;8.548;2023-11-21T12:31:30;13.80;99.90
24638;DHT22;12773;50.162;8.548;2023-11-21T12:34:18;13.60;99.90
24638;DHT22;12773;50.162;8.548;2023-11-21T12:37:05;13.70;99.90
24638;DHT22;12773;50.162;8.548;2023-11-21T12:39:53;13.70;99.90
24638;DHT22;12773;50.162;8.548;2023-11-21T12:42:43;13.70;99.90
24638;DHT22;12773;50.162;8.548;2023-11-21T12:45:30;13.60;99.90
24638;DHT22;12773;50.162;8.548;2023-11-21T12:48:18;13.70;99.90
24638;DHT22;12773;50.162;8.548;2023-11-21T12:51:07;13.80;99.90
24638;DHT22;12773;50.162;8.548;2023-11-21T12:53:54;13.70;99.90
24638;DHT22;12773;50.162;8.548;2023-11-21T12:56:44;13.60;99.90
24638;DHT22;12773;50.162;8.548;2023-11-21T12:59:34;13.60;99.90
24638;DHT22;12773;50.162;8.548;2023-11-21T13:02:21;13.60;99.90
24638;DHT22;12773;50.162;8.548;2023-11-21T13:05:11;13.60;99.90
24638;DHT22;12773;50.162;8.548;2023-11-21T13:08:02;13.40;99.90
24638;DHT22;12773;50.162;8.548;2023-11-21T13:10:53;13.50;99.90
24638;DHT22;12773;50.162;8.548;2023-11-21T13:13:43;13.60;99.90
24638;DHT22;12773;50.162;8.548;2023-11-21T13:19:13;13.60;99.90
24638;DHT22;12773;50.162;8.548;2023-11-21T13:22:00;13.70;99.90
24638;DHT22;12773;50.162;8.548;2023-11-21T13:24:49;13.70;99.90
24638;DHT22;12773;50.162;8.548;2023-11-21T13:27:37;13.70;99.90
24638;DHT22;12773;50.162;8.548;2023-11-21T13:30:25;13.70;99.90
24638;DHT22;12773;50.162;8.548;2023-11-21T13:33:17;13.80;99.90
24638;DHT22;12773;50.162;8.548;2023-11-21T13:36:06;13.70;99.90
24638;DHT22;12773;50.162;8.548;2023-11-21T13:38:58;13.70;99.90
24638;DHT22;12773;50.162;8.548;2023-11-21T13:41:46;13.60;99.90
24638;DHT22;12773;50.162;8.548;2023-11-21T13:44:35;13.60;99.90
24638;DHT22;12773;50.162;8.548;2023-11-21T13:47:24;13.50;99.90
24638;DHT22;12773;50.162;8.548;2023-11-21T13:50:16;13.30;99.90
24638;DHT22;12773;50.162;8.548;2023-11-21T13:53:05;13.30;99.90
24638;DHT22;12773;50.162;8.548;2023-11-21T13:55:55;13.30;99.90
24638;DHT22;12773;50.162;8.548;2023-11-21T13:58:44;13.40;99.90
24638;DHT22;12773;50.162;8.548;2023-11-21T14:01:33;13.40;99.90
24638;DHT22;12773;50.162;8.548;2023-11-21T14:04:25;13.40;99.90
24638;DHT22;12773;50.162;8.548;2023-11-21T14:07:23;13.40;99.90
24638;DHT22;12773;50.162;8.548;2023-11-21T14:10:14;13.30;99.90
24638;DHT22;12773;50.162;8.548;2023-11-21T14:13:03;13.30;99.90
24638;DHT22;12773;50.162;8.548;2023-11-21T14:15:52;13.30;99.90
24638;DHT22;12773;50.162;8.548;2023-11-21T14:18:41;13.20;99.90
24638;DHT22;12773;50.162;8.548;2023-11-21T14:21:30;13.20;99.90
24638;DHT22;12773;50.162;8.548;2023-11-21T14:24:18;13.00;99.90
24638;DHT22;12773;50.162;8.548;2023-11-21T14:27:09;12.90;99.90
24638;DHT22;12773;50.162;8.548;2023-11-21T14:29:56;12.90;99.90
24638;DHT22;12773;50.162;8.548;2023-11-21T14:32:44;12.80;99.90
24638;DHT22;12773;50.162;8.548;2023-11-21T14:35:32;12.80;99.90
24638;DHT22;12773;50.162;8.548;2023-11-21T14:38:20;12.70;99.90
24638;DHT22;12773;50.162;8.548;2023-11-21T14:41:09;12.70;99.90
24638;DHT22;12773;50.162;8.548;2023-11-21T14:43:57;12.70;99.90
24638;DHT22;12773;50.162;8.548;2023-11-21T14:46:46;12.80;99.90
24638;DHT22;12773;50.162;8.548;2023-11-21T14:49:34;12.90;99.90
24638;DHT22;12773;50.162;8.548;2023-11-21T14:52:23;12.80;99.90
24638;DHT22;12773;50.162;8.548;2023-11-21T14:55:22;12.90;99.90
24638;DHT22;12773;50.162;8.548;2023-11-21T14:58:13;12.80;99.90
24638;DHT22;12773;50.162;8.548;2023-11-21T15:01:03;12.60;99.90
24638;DHT22;12773;50.162;8.548;2023-11-21T15:03:52;12.60;99.90
24638;DHT22;12773;50.162;8.548;2023-11-21T15:06:41;12.60;99.90
24638;DHT22;12773;50.162;8.548;2023-11-21T15:09:29;12.50;99.90
24638;DHT22;12773;50.162;8.548;2023-11-21T15:12:21;12.50;99.90
24638;DHT22;12773;50.162;8.548;2023-11-21T15:15:10;12.60;99.90
24638;DHT22;12773;50.162;8.548;2023-11-21T15:17:58;12.70;99.90
24638;DHT22;12773;50.162;8.548;2023-11-21T15:20:46;12.80;99.90
24638;DHT22;12773;50.162;8.548;2023-11-21T15:23:33;12.80;99.90
24638;DHT22;12773;50.162;8.548;2023-11-21T15:26:21;12.70;99.90
24638;DHT22;12773;50.162;8.548;2023-11-21T15:29:08;12.60;99.90
24638;DHT22;12773;50.162;8.548;2023-11-21T15:31:56;12.60;99.90
24638;DHT22;12773;50.162;8.548;2023-11-21T15:34:44;12.70;99.90
24638;DHT22;12773;50.162;8.548;2023-11-21T15:37:33;12.70;99.90
24638;DHT22;12773;50.162;8.548;2023-11-21T15:40:20;12.70;99.90
24638;DHT22;12773;50.162;8.548;2023-11-21T15:43:08;12.80;99.90
24638;DHT22;12773;50.162;8.548;2023-11-21T15:45:55;12.80;99.90
24638;DHT22;12773;50.162;8.548;2023-11-21T15:48:42;12.80;99.90
24638;DHT22;12773;50.162;8.548;2023-11-21T15:51:31;12.80;99.90
24638;DHT22;12773;50.162;8.548;2023-11-21T15:54:21;12.70;99.90
24638;DHT22;12773;50.162;8.548;2023-11-21T15:57:08;12.70;99.90
24638;DHT22;12773;50.162;8.548;2023-11-21T15:59:57;12.70;99.90
24638;DHT22;12773;50.162;8.548;2023-11-21T16:02:44;12.70;99.90
24638;DHT22;12773;50.162;8.548;2023-11-21T16:05:32;12.80;99.90
24638;DHT22;12773;50.162;8.548;2023-11-21T16:08:19;12.70;99.90
24638;DHT22;12773;50.162;8.548;2023-11-21T16:11:07;12.70;99.90
24638;DHT22;12773;50.162;8.548;2023-11-21T16:13:55;12.70;99.90
24638;DHT22;12773;50.162;8.548;2023-11-21T16:16:43;12.70;99.90
24638;DHT22;12773;50.162;8.548;2023-11-21T16:19:31;12.70;99.90
24638;DHT22;12773;50.162;8.548;2023-11-21T16:22:18;12.70;99.90
24638;DHT22;12773;50.162;8.548;2023-11-21T16:25:06;12.70;99.90
24638;DHT22;12773;50.162;8.548;2023-11-21T16:27:55;12.60;99.90
24638;DHT22;12773;50.162;8.548;2023-11-21T16:30:48;12.70;99.90
24638;DHT22;12773;50.162;8.548;2023-11-21T16:33:37;12.80;99.90
24638;DHT22;12773;50.162;8.548;2023-11-21T16:36:25;12.70;99.90
24638;DHT22;12773;50.162;8.548;2023-11-21T16:39:13;12.80;99.90
24638;DHT22;12773;50.162;8.548;2023-11-21T16:42:00;12.70;99.90
24638;DHT22;12773;50.162;8.548;2023-11-21T16:44:49;12.70;99.90
24638;DHT22;12773;50.162;8.548;2023-11-21T16:47:43;12.60;99.90
24638;DHT22;12773;50.162;8.548;2023-11-21T16:50:32;12.60;99.90
24638;DHT22;12773;50.162;8.548;2023-11-21T16:53:19;12.40;99.90
24638;DHT22;12773;50.162;8.548;2023-11-21T16:56:07;12.30;99.90
24638;DHT22;12773;50.162;8.548;2023-11-21T16:58:54;12.30;99.90
24638;DHT22;12773;50.162;8.548;2023-11-21T17:01:42;12.20;99.90
24638;DHT22;12773;50.162;8.548;2023-11-21T17:04:31;12.10;99.90
24638;DHT22;12773;50.162;8.548;2023-11-21T17:07:20;12.10;99.90
24638;DHT22;12773;50.162;8.548;2023-11-21T17:10:09;12.00;99.90
24638;DHT22;12773;50.162;8.548;2023-11-21T17:12:58;11.90;99.90
24638;DHT22;12773;50.162;8.548;2023-11-21T17:15:47;11.90;99.90
24638;DHT22;12773;50.162;8.548;2023-11-21T17:18:34;11.80;99.90
24638;DHT22;12773;50.162;8.548;2023-11-21T17:21:22;11.90;99.90
24638;DHT22;12773;50.162;8.548;2023-11-21T17:24:11;11.80;99.90
24638;DHT22;12773;50.162;8.548;2023-11-21T17:26:59;11.90;99.90
24638;DHT22;12773;50.162;8.548;2023-11-21T17:29:47;11.80;99.90
24638;DHT22;12773;50.162;8.548;2023-11-21T17:32:36;11.80;99.90
24638;DHT22;12773;50.162;8.548;2023-11-21T17:35:23;11.90;99.90
24638;DHT22;12773;50.162;8.548;2023-11-21T17:38:11;11.80;99.90
24638;DHT22;12773;50.162;8.548;2023-11-21T17:41:01;11.70;99.90
24638;DHT22;12773;50.162;8.548;2023-11-21T17:43:49;11.70;99.90
24638;DHT22;12773;50.162;8.548;2023-11-21T17:46:37;11.80;99.90
24638;DHT22;12773;50.162;8.548;2023-11-21T17:49:24;11.80;99.90
24638;DHT22;12773;50.162;8.548;2023-11-21T17:52:13;11.70;99.90
24638;DHT22;12773;50.162;8.548;2023-11-21T17:55:01;11.60;99.90